sensor_id;sensor_type;location;lat;lon;timestamp;P1;durP1;ratioP1;P2;durP2;ratioP2
68196;SDS011;55019;49.382;11.358;2023-03-14T00:01:57;1.20;;;0.13;;
68196;SDS011;55019;49.382;11.358;2023-03-14T00:04:22;0.93;;;0.05;;
68196;SDS011;55019;49.382;11.358;2023-03-14T00:06:48;0.20;;;0.05;;
68196;SDS011;55019;49.382;11.358;2023-03-14T00:09:15;0.13;;;0.13;;
68196;SDS011;55019;49.382;11.358;2023-03-14T00:11:42;0.20;;;0.00;;
68196;SDS011;55019;49.382;11.358;2023-03-14T00:14:07;0.57;;;0.00;;
68196;SDS011;55019;49.382;11.358;2023-03-14T00:16:33;0.30;;;0.00;;
68196;SDS011;55019;49.382;11.358;2023-03-14T00:18:59;1.30;;;0.20;;
68196;SDS011;55019;49.382;11.358;2023-03-14T00:21:25;0.10;;;0.00;;
68196;SDS011;55019;49.382;11.358;2023-03-14T00:23:54;0.05;;;0.00;;
68196;SDS011;55019;49.382;11.358;2023-03-14T00:26:20;0.55;;;0.00;;
68196;SDS011;55019;49.382;11.358;2023-03-14T00:28:47;0.50;;;0.28;;
68196;SDS011;55019;49.382;11.358;2023-03-14T00:31:16;0.35;;;0.10;;
68196;SDS011;55019;49.382;11.358;2023-03-14T00:33:42;0.85;;;0.20;;
68196;SDS011;55019;49.382;11.358;2023-03-14T00:36:10;0.63;;;0.20;;
68196;SDS011;55019;49.382;11.358;2023-03-14T00:38:41;0.65;;;0.20;;
68196;SDS011;55019;49.382;11.358;2023-03-14T00:41:09;0.47;;;0.10;;
68196;SDS011;55019;49.382;11.358;2023-03-14T00:43:36;0.32;;;0.10;;
68196;SDS011;55019;49.382;11.358;2023-03-14T00:46:03;0.20;;;0.03;;
68196;SDS011;55019;49.382;11.358;2023-03-14T00:48:30;0.40;;;0.10;;
68196;SDS011;55019;49.382;11.358;2023-03-14T00:50:56;0.88;;;0.22;;
68196;SDS011;55019;49.382;11.358;2023-03-14T00:53:21;0.20;;;0.03;;
68196;SDS011;55019;49.382;11.358;2023-03-14T00:55:47;0.08;;;0.03;;
68196;SDS011;55019;49.382;11.358;2023-03-14T00:58:14;0.00;;;0.00;;
68196;SDS011;55019;49.382;11.358;2023-03-14T01:03:09;0.38;;;0.00;;
68196;SDS011;55019;49.382;11.358;2023-03-14T01:05:35;0.05;;;0.00;;
68196;SDS011;55019;49.382;11.358;2023-03-14T01:08:01;0.40;;;0.20;;
68196;SDS011;55019;49.382;11.358;2023-03-14T01:10:27;0.15;;;0.00;;
68196;SDS011;55019;49.382;11.358;2023-03-14T01:12:53;0.00;;;0.00;;
68196;SDS011;55019;49.382;11.358;2023-03-14T01:15:19;0.55;;;0.00;;
68196;SDS011;55019;49.382;11.358;2023-03-14T01:17:45;0.10;;;0.00;;
68196;SDS011;55019;49.382;11.358;2023-03-14T01:20:12;0.00;;;0.00;;
68196;SDS011;55019;49.382;11.358;2023-03-14T01:22:40;0.00;;;0.00;;
68196;SDS011;55019;49.382;11.358;2023-03-14T01:25:07;0.00;;;0.00;;
68196;SDS011;55019;49.382;11.358;2023-03-14T01:27:35;0.00;;;0.00;;
68196;SDS011;55019;49.382;11.358;2023-03-14T01:30:01;0.08;;;0.00;;
68196;SDS011;55019;49.382;11.358;2023-03-14T01:32:28;0.00;;;0.00;;
68196;SDS011;55019;49.382;11.358;2023-03-14T01:34:54;0.28;;;0.20;;
68196;SDS011;55019;49.382;11.358;2023-03-14T01:37:20;0.77;;;0.00;;
68196;SDS011;55019;49.382;11.358;2023-03-14T01:39:46;0.03;;;0.00;;
68196;SDS011;55019;49.382;11.358;2023-03-14T01:42:13;0.17;;;0.00;;
68196;SDS011;55019;49.382;11.358;2023-03-14T01:47:19;0.10;;;0.10;;
68196;SDS011;55019;49.382;11.358;2023-03-14T01:50:02;0.00;;;0.00;;
68196;SDS011;55019;49.382;11.358;2023-03-14T01:52:39;0.40;;;0.00;;
68196;SDS011;55019;49.382;11.358;2023-03-14T01:55:29;0.08;;;0.00;;
68196;SDS011;55019;49.382;11.358;2023-03-14T01:57:59;0.00;;;0.00;;
68196;SDS011;55019;49.382;11.358;2023-03-14T02:00:29;0.00;;;0.00;;
68196;SDS011;55019;49.382;11.358;2023-03-14T02:08:31;1.02;;;0.10;;
68196;SDS011;55019;49.382;11.358;2023-03-14T02:11:04;0.13;;;0.03;;
68196;SDS011;55019;49.382;11.358;2023-03-14T02:13:43;0.10;;;0.10;;
68196;SDS011;55019;49.382;11.358;2023-03-14T02:16:28;0.00;;;0.00;;
68196;SDS011;55019;49.382;11.358;2023-03-14T02:19:28;0.10;;;0.03;;
68196;SDS011;55019;49.382;11.358;2023-03-14T02:22:20;0.55;;;0.17;;
68196;SDS011;55019;49.382;11.358;2023-03-14T02:27:42;0.20;;;0.20;;
68196;SDS011;55019;49.382;11.358;2023-03-14T02:30:16;0.20;;;0.20;;
68196;SDS011;55019;49.382;11.358;2023-03-14T02:32:52;0.43;;;0.20;;
68196;SDS011;55019;49.382;11.358;2023-03-14T02:35:29;0.20;;;0.20;;
68196;SDS011;55019;49.382;11.358;2023-03-14T02:38:09;0.20;;;0.20;;
68196;SDS011;55019;49.382;11.358;2023-03-14T02:40:43;0.15;;;0.08;;
68196;SDS011;55019;49.382;11.358;2023-03-14T02:43:10;0.08;;;0.08;;
68196;SDS011;55019;49.382;11.358;2023-03-14T02:45:42;0.20;;;0.10;;
68196;SDS011;55019;49.382;11.358;2023-03-14T02:48:21;0.32;;;0.20;;
68196;SDS011;55019;49.382;11.358;2023-03-14T02:50:48;0.30;;;0.10;;
68196;SDS011;55019;49.382;11.358;2023-03-14T02:53:19;0.10;;;0.10;;
68196;SDS011;55019;49.382;11.358;2023-03-14T02:55:49;0.43;;;0.15;;
68196;SDS011;55019;49.382;11.358;2023-03-14T02:58:18;0.00;;;0.00;;
68196;SDS011;55019;49.382;11.358;2023-03-14T03:00:49;0.57;;;0.10;;
68196;SDS011;55019;49.382;11.358;2023-03-14T03:03:17;0.28;;;0.20;;
68196;SDS011;55019;49.382;11.358;2023-03-14T03:05:43;0.10;;;0.03;;
68196;SDS011;55019;49.382;11.358;2023-03-14T03:08:12;0.40;;;0.17;;
68196;SDS011;55019;49.382;11.358;2023-03-14T03:10:39;0.10;;;0.08;;
68196;SDS011;55019;49.382;11.358;2023-03-14T03:13:06;0.15;;;0.00;;
68196;SDS011;55019;49.382;11.358;2023-03-14T03:15:31;0.20;;;0.10;;
68196;SDS011;55019;49.382;11.358;2023-03-14T03:17:57;0.10;;;0.10;;
68196;SDS011;55019;49.382;11.358;2023-03-14T03:20:23;0.13;;;0.13;;
68196;SDS011;55019;49.382;11.358;2023-03-14T03:22:48;0.45;;;0.17;;
68196;SDS011;55019;49.382;11.358;2023-03-14T03:25:15;0.10;;;0.10;;
68196;SDS011;55019;49.382;11.358;2023-03-14T03:27:41;0.40;;;0.10;;
68196;SDS011;55019;49.382;11.358;2023-03-14T03:30:07;1.23;;;0.40;;
68196;SDS011;55019;49.382;11.358;2023-03-14T03:35:04;0.55;;;0.00;;
68196;SDS011;55019;49.382;11.358;2023-03-14T03:37:33;0.30;;;0.00;;
68196;SDS011;55019;49.382;11.358;2023-03-14T03:40:00;0.08;;;0.05;;
68196;SDS011;55019;49.382;11.358;2023-03-14T03:42:27;0.22;;;0.10;;
68196;SDS011;55019;49.382;11.358;2023-03-14T03:44:53;0.00;;;0.00;;
68196;SDS011;55019;49.382;11.358;2023-03-14T03:47:19;0.00;;;0.00;;
68196;SDS011;55019;49.382;11.358;2023-03-14T03:49:47;0.80;;;0.00;;
68196;SDS011;55019;49.382;11.358;2023-03-14T03:52:12;0.30;;;0.10;;
68196;SDS011;55019;49.382;11.358;2023-03-14T03:54:38;0.00;;;0.00;;
68196;SDS011;55019;49.382;11.358;2023-03-14T03:57:04;0.00;;;0.00;;
68196;SDS011;55019;49.382;11.358;2023-03-14T03:59:30;0.43;;;0.20;;
68196;SDS011;55019;49.382;11.358;2023-03-14T04:01:56;0.10;;;0.10;;
68196;SDS011;55019;49.382;11.358;2023-03-14T04:04:22;0.00;;;0.00;;
68196;SDS011;55019;49.382;11.358;2023-03-14T04:06:48;0.52;;;0.38;;
68196;SDS011;55019;49.382;11.358;2023-03-14T04:09:14;0.47;;;0.20;;
68196;SDS011;55019;49.382;11.358;2023-03-14T04:11:46;0.10;;;0.10;;
68196;SDS011;55019;49.382;11.358;2023-03-14T04:14:18;0.10;;;0.10;;
68196;SDS011;55019;49.382;11.358;2023-03-14T04:16:44;0.10;;;0.10;;
68196;SDS011;55019;49.382;11.358;2023-03-14T04:19:13;0.38;;;0.10;;
68196;SDS011;55019;49.382;11.358;2023-03-14T04:21:42;0.17;;;0.10;;
68196;SDS011;55019;49.382;11.358;2023-03-14T04:24:12;0.00;;;0.00;;
68196;SDS011;55019;49.382;11.358;2023-03-14T04:26:40;0.10;;;0.05;;
68196;SDS011;55019;49.382;11.358;2023-03-14T04:29:08;0.10;;;0.00;;
68196;SDS011;55019;49.382;11.358;2023-03-14T04:31:34;0.00;;;0.00;;
68196;SDS011;55019;49.382;11.358;2023-03-14T04:34:00;0.00;;;0.00;;
68196;SDS011;55019;49.382;11.358;2023-03-14T04:36:33;0.47;;;0.30;;
68196;SDS011;55019;49.382;11.358;2023-03-14T04:39:03;0.47;;;0.47;;
68196;SDS011;55019;49.382;11.358;2023-03-14T04:41:30;0.68;;;0.22;;
68196;SDS011;55019;49.382;11.358;2023-03-14T04:43:57;0.17;;;0.00;;
68196;SDS011;55019;49.382;11.358;2023-03-14T04:46:23;0.10;;;0.10;;
68196;SDS011;55019;49.382;11.358;2023-03-14T04:48:49;0.10;;;0.10;;
68196;SDS011;55019;49.382;11.358;2023-03-14T04:51:17;0.00;;;0.00;;
68196;SDS011;55019;49.382;11.358;2023-03-14T04:53:43;0.03;;;0.03;;
68196;SDS011;55019;49.382;11.358;2023-03-14T04:58:40;2.20;;;0.10;;
68196;SDS011;55019;49.382;11.358;2023-03-14T05:01:06;1.35;;;0.10;;
68196;SDS011;55019;49.382;11.358;2023-03-14T05:03:51;0.00;;;0.00;;
68196;SDS011;55019;49.382;11.358;2023-03-14T05:06:37;0.28;;;0.28;;
68196;SDS011;55019;49.382;11.358;2023-03-14T05:09:31;0.10;;;0.10;;
68196;SDS011;55019;49.382;11.358;2023-03-14T05:12:15;0.10;;;0.10;;
68196;SDS011;55019;49.382;11.358;2023-03-14T05:15:00;0.10;;;0.10;;
68196;SDS011;55019;49.382;11.358;2023-03-14T05:17:52;0.17;;;0.10;;
68196;SDS011;55019;49.382;11.358;2023-03-14T05:20:40;1.02;;;0.17;;
68196;SDS011;55019;49.382;11.358;2023-03-14T05:23:44;1.15;;;0.10;;
68196;SDS011;55019;49.382;11.358;2023-03-14T05:26:36;0.10;;;0.10;;
68196;SDS011;55019;49.382;11.358;2023-03-14T05:29:21;0.10;;;0.10;;
68196;SDS011;55019;49.382;11.358;2023-03-14T05:31:59;1.33;;;0.10;;
68196;SDS011;55019;49.382;11.358;2023-03-14T05:34:43;1.00;;;0.10;;
68196;SDS011;55019;49.382;11.358;2023-03-14T05:37:22;0.22;;;0.10;;
68196;SDS011;55019;49.382;11.358;2023-03-14T05:39:59;0.10;;;0.10;;
68196;SDS011;55019;49.382;11.358;2023-03-14T05:42:40;0.10;;;0.10;;
68196;SDS011;55019;49.382;11.358;2023-03-14T05:45:26;0.10;;;0.10;;
68196;SDS011;55019;49.382;11.358;2023-03-14T05:48:11;0.43;;;0.17;;
68196;SDS011;55019;49.382;11.358;2023-03-14T05:50:55;0.43;;;0.20;;
68196;SDS011;55019;49.382;11.358;2023-03-14T05:53:36;0.35;;;0.20;;
68196;SDS011;55019;49.382;11.358;2023-03-14T05:56:14;0.32;;;0.10;;
68196;SDS011;55019;49.382;11.358;2023-03-14T05:59:04;0.00;;;0.00;;
68196;SDS011;55019;49.382;11.358;2023-03-14T06:01:40;0.60;;;0.35;;
68196;SDS011;55019;49.382;11.358;2023-03-14T06:06:40;0.52;;;0.45;;
68196;SDS011;55019;49.382;11.358;2023-03-14T06:09:08;0.25;;;0.25;;
68196;SDS011;55019;49.382;11.358;2023-03-14T06:11:37;0.38;;;0.13;;
68196;SDS011;55019;49.382;11.358;2023-03-14T06:14:04;0.10;;;0.10;;
68196;SDS011;55019;49.382;11.358;2023-03-14T06:16:30;0.22;;;0.22;;
68196;SDS011;55019;49.382;11.358;2023-03-14T06:18:58;0.30;;;0.20;;
68196;SDS011;55019;49.382;11.358;2023-03-14T06:21:23;0.22;;;0.15;;
68196;SDS011;55019;49.382;11.358;2023-03-14T06:23:50;0.82;;;0.30;;
68196;SDS011;55019;49.382;11.358;2023-03-14T06:26:18;0.63;;;0.20;;
68196;SDS011;55019;49.382;11.358;2023-03-14T06:28:44;0.40;;;0.20;;
68196;SDS011;55019;49.382;11.358;2023-03-14T06:31:10;0.50;;;0.20;;
68196;SDS011;55019;49.382;11.358;2023-03-14T06:33:45;0.20;;;0.17;;
68196;SDS011;55019;49.382;11.358;2023-03-14T06:36:11;0.28;;;0.20;;
68196;SDS011;55019;49.382;11.358;2023-03-14T06:38:39;0.25;;;0.25;;
68196;SDS011;55019;49.382;11.358;2023-03-14T06:41:06;0.25;;;0.15;;
68196;SDS011;55019;49.382;11.358;2023-03-14T06:43:37;2.22;;;0.47;;
68196;SDS011;55019;49.382;11.358;2023-03-14T06:46:05;3.85;;;0.60;;
68196;SDS011;55019;49.382;11.358;2023-03-14T06:48:32;0.55;;;0.32;;
68196;SDS011;55019;49.382;11.358;2023-03-14T06:50:58;0.13;;;0.13;;
68196;SDS011;55019;49.382;11.358;2023-03-14T06:53:24;0.98;;;0.30;;
68196;SDS011;55019;49.382;11.358;2023-03-14T06:55:50;0.17;;;0.17;;
68196;SDS011;55019;49.382;11.358;2023-03-14T06:58:17;0.35;;;0.10;;
68196;SDS011;55019;49.382;11.358;2023-03-14T07:00:44;0.85;;;0.40;;
68196;SDS011;55019;49.382;11.358;2023-03-14T07:03:13;0.55;;;0.20;;
68196;SDS011;55019;49.382;11.358;2023-03-14T07:05:43;0.20;;;0.20;;
68196;SDS011;55019;49.382;11.358;2023-03-14T07:08:08;1.88;;;0.35;;
68196;SDS011;55019;49.382;11.358;2023-03-14T07:10:34;1.45;;;0.30;;
68196;SDS011;55019;49.382;11.358;2023-03-14T07:13:00;0.60;;;0.40;;
68196;SDS011;55019;49.382;11.358;2023-03-14T07:15:29;0.30;;;0.20;;
68196;SDS011;55019;49.382;11.358;2023-03-14T07:18:00;0.40;;;0.40;;
68196;SDS011;55019;49.382;11.358;2023-03-14T07:20:27;1.00;;;0.30;;
68196;SDS011;55019;49.382;11.358;2023-03-14T07:22:54;1.13;;;0.22;;
68196;SDS011;55019;49.382;11.358;2023-03-14T07:25:31;0.40;;;0.25;;
68196;SDS011;55019;49.382;11.358;2023-03-14T07:27:57;0.32;;;0.28;;
68196;SDS011;55019;49.382;11.358;2023-03-14T07:30:23;0.30;;;0.30;;
68196;SDS011;55019;49.382;11.358;2023-03-14T07:32:49;0.93;;;0.30;;
68196;SDS011;55019;49.382;11.358;2023-03-14T07:35:15;0.70;;;0.35;;
68196;SDS011;55019;49.382;11.358;2023-03-14T07:37:41;0.20;;;0.20;;
68196;SDS011;55019;49.382;11.358;2023-03-14T07:40:09;2.20;;;0.52;;
68196;SDS011;55019;49.382;11.358;2023-03-14T07:42:37;0.13;;;0.10;;
68196;SDS011;55019;49.382;11.358;2023-03-14T07:45:21;2.03;;;0.40;;
68196;SDS011;55019;49.382;11.358;2023-03-14T07:47:47;0.38;;;0.35;;
68196;SDS011;55019;49.382;11.358;2023-03-14T07:50:12;1.25;;;0.30;;
68196;SDS011;55019;49.382;11.358;2023-03-14T07:52:38;0.30;;;0.30;;
68196;SDS011;55019;49.382;11.358;2023-03-14T07:55:04;0.40;;;0.17;;
68196;SDS011;55019;49.382;11.358;2023-03-14T07:57:30;0.32;;;0.20;;
68196;SDS011;55019;49.382;11.358;2023-03-14T07:59:55;0.35;;;0.28;;
68196;SDS011;55019;49.382;11.358;2023-03-14T08:02:21;0.30;;;0.10;;
68196;SDS011;55019;49.382;11.358;2023-03-14T08:04:49;0.22;;;0.20;;
68196;SDS011;55019;49.382;11.358;2023-03-14T08:07:15;0.50;;;0.25;;
68196;SDS011;55019;49.382;11.358;2023-03-14T08:09:41;0.20;;;0.10;;
68196;SDS011;55019;49.382;11.358;2023-03-14T08:12:07;0.30;;;0.20;;
68196;SDS011;55019;49.382;11.358;2023-03-14T08:14:33;0.40;;;0.20;;
68196;SDS011;55019;49.382;11.358;2023-03-14T08:17:01;0.28;;;0.20;;
68196;SDS011;55019;49.382;11.358;2023-03-14T08:19:27;0.50;;;0.30;;
68196;SDS011;55019;49.382;11.358;2023-03-14T08:21:53;1.58;;;0.20;;
68196;SDS011;55019;49.382;11.358;2023-03-14T08:24:18;0.63;;;0.20;;
68196;SDS011;55019;49.382;11.358;2023-03-14T08:26:44;0.93;;;0.30;;
68196;SDS011;55019;49.382;11.358;2023-03-14T08:29:09;0.50;;;0.50;;
68196;SDS011;55019;49.382;11.358;2023-03-14T08:31:35;1.27;;;0.40;;
68196;SDS011;55019;49.382;11.358;2023-03-14T08:34:01;1.30;;;0.43;;
68196;SDS011;55019;49.382;11.358;2023-03-14T08:36:27;2.72;;;0.20;;
68196;SDS011;55019;49.382;11.358;2023-03-14T08:38:53;2.40;;;0.30;;
68196;SDS011;55019;49.382;11.358;2023-03-14T08:41:19;1.40;;;0.30;;
68196;SDS011;55019;49.382;11.358;2023-03-14T08:43:45;0.52;;;0.30;;
68196;SDS011;55019;49.382;11.358;2023-03-14T08:46:11;0.57;;;0.55;;
68196;SDS011;55019;49.382;11.358;2023-03-14T08:48:36;0.90;;;0.13;;
68196;SDS011;55019;49.382;11.358;2023-03-14T08:51:06;0.60;;;0.20;;
68196;SDS011;55019;49.382;11.358;2023-03-14T08:53:33;1.77;;;0.30;;
68196;SDS011;55019;49.382;11.358;2023-03-14T08:55:59;1.10;;;0.20;;
68196;SDS011;55019;49.382;11.358;2023-03-14T08:58:25;1.00;;;0.25;;
68196;SDS011;55019;49.382;11.358;2023-03-14T09:00:51;0.30;;;0.30;;
68196;SDS011;55019;49.382;11.358;2023-03-14T09:03:17;0.22;;;0.22;;
68196;SDS011;55019;49.382;11.358;2023-03-14T09:05:42;1.20;;;0.10;;
68196;SDS011;55019;49.382;11.358;2023-03-14T09:08:08;1.10;;;0.28;;
68196;SDS011;55019;49.382;11.358;2023-03-14T09:10:34;0.98;;;0.22;;
68196;SDS011;55019;49.382;11.358;2023-03-14T09:12:59;1.17;;;0.45;;
68196;SDS011;55019;49.382;11.358;2023-03-14T09:15:25;0.35;;;0.30;;
68196;SDS011;55019;49.382;11.358;2023-03-14T09:17:51;0.20;;;0.20;;
68196;SDS011;55019;49.382;11.358;2023-03-14T09:20:17;0.35;;;0.35;;
68196;SDS011;55019;49.382;11.358;2023-03-14T09:22:43;0.47;;;0.10;;
68196;SDS011;55019;49.382;11.358;2023-03-14T09:25:09;0.20;;;0.20;;
68196;SDS011;55019;49.382;11.358;2023-03-14T09:27:35;1.30;;;0.20;;
68196;SDS011;55019;49.382;11.358;2023-03-14T09:30:02;0.57;;;0.57;;
68196;SDS011;55019;49.382;11.358;2023-03-14T09:32:29;1.30;;;0.30;;
68196;SDS011;55019;49.382;11.358;2023-03-14T09:34:56;1.63;;;0.52;;
68196;SDS011;55019;49.382;11.358;2023-03-14T09:37:22;1.17;;;0.43;;
68196;SDS011;55019;49.382;11.358;2023-03-14T09:39:48;0.73;;;0.13;;
68196;SDS011;55019;49.382;11.358;2023-03-14T09:42:14;0.60;;;0.20;;
68196;SDS011;55019;49.382;11.358;2023-03-14T09:44:53;0.63;;;0.30;;
68196;SDS011;55019;49.382;11.358;2023-03-14T09:47:25;0.32;;;0.10;;
68196;SDS011;55019;49.382;11.358;2023-03-14T09:49:52;1.27;;;0.35;;
68196;SDS011;55019;49.382;11.358;2023-03-14T09:54:50;0.98;;;0.30;;
68196;SDS011;55019;49.382;11.358;2023-03-14T09:57:19;0.95;;;0.40;;
68196;SDS011;55019;49.382;11.358;2023-03-14T09:59:47;0.10;;;0.10;;
68196;SDS011;55019;49.382;11.358;2023-03-14T10:02:17;1.15;;;0.50;;
68196;SDS011;55019;49.382;11.358;2023-03-14T10:04:48;0.85;;;0.20;;
68196;SDS011;55019;49.382;11.358;2023-03-14T10:07:16;0.68;;;0.28;;
68196;SDS011;55019;49.382;11.358;2023-03-14T10:09:45;2.00;;;0.28;;
68196;SDS011;55019;49.382;11.358;2023-03-14T10:12:15;1.20;;;0.20;;
68196;SDS011;55019;49.382;11.358;2023-03-14T10:14:49;2.92;;;0.30;;
68196;SDS011;55019;49.382;11.358;2023-03-14T10:17:17;0.17;;;0.10;;
68196;SDS011;55019;49.382;11.358;2023-03-14T10:19:58;0.40;;;0.20;;
68196;SDS011;55019;49.382;11.358;2023-03-14T10:22:26;0.68;;;0.30;;
68196;SDS011;55019;49.382;11.358;2023-03-14T10:24:56;0.22;;;0.10;;
68196;SDS011;55019;49.382;11.358;2023-03-14T10:27:31;1.65;;;0.20;;
68196;SDS011;55019;49.382;11.358;2023-03-14T10:29:59;0.90;;;0.20;;
68196;SDS011;55019;49.382;11.358;2023-03-14T10:32:28;0.10;;;0.10;;
68196;SDS011;55019;49.382;11.358;2023-03-14T10:35:17;1.75;;;0.45;;
68196;SDS011;55019;49.382;11.358;2023-03-14T10:40:16;1.25;;;0.40;;
68196;SDS011;55019;49.382;11.358;2023-03-14T10:42:44;0.17;;;0.10;;
68196;SDS011;55019;49.382;11.358;2023-03-14T10:45:31;0.35;;;0.20;;
68196;SDS011;55019;49.382;11.358;2023-03-14T10:47:59;0.68;;;0.10;;
68196;SDS011;55019;49.382;11.358;2023-03-14T10:50:32;1.27;;;0.30;;
68196;SDS011;55019;49.382;11.358;2023-03-14T10:53:00;0.10;;;0.10;;
68196;SDS011;55019;49.382;11.358;2023-03-14T10:55:41;0.20;;;0.20;;
68196;SDS011;55019;49.382;11.358;2023-03-14T11:06:36;0.20;;;0.20;;
68196;SDS011;55019;49.382;11.358;2023-03-14T11:09:25;0.08;;;0.08;;
68196;SDS011;55019;49.382;11.358;2023-03-14T11:12:03;0.55;;;0.20;;
68196;SDS011;55019;49.382;11.358;2023-03-14T11:14:58;1.75;;;0.20;;
68196;SDS011;55019;49.382;11.358;2023-03-14T11:17:30;1.33;;;0.40;;
68196;SDS011;55019;49.382;11.358;2023-03-14T11:20:17;2.50;;;0.30;;
68196;SDS011;55019;49.382;11.358;2023-03-14T11:22:59;1.08;;;0.30;;
68196;SDS011;55019;49.382;11.358;2023-03-14T11:36:46;0.57;;;0.20;;
68196;SDS011;55019;49.382;11.358;2023-03-14T11:39:18;0.40;;;0.10;;
68196;SDS011;55019;49.382;11.358;2023-03-14T11:41:46;0.25;;;0.20;;
68196;SDS011;55019;49.382;11.358;2023-03-14T11:44:20;0.73;;;0.20;;
68196;SDS011;55019;49.382;11.358;2023-03-14T11:46:59;0.60;;;0.30;;
68196;SDS011;55019;49.382;11.358;2023-03-14T11:52:25;1.23;;;0.57;;
68196;SDS011;55019;49.382;11.358;2023-03-14T11:55:05;0.85;;;0.25;;
68196;SDS011;55019;49.382;11.358;2023-03-14T11:57:35;0.52;;;0.30;;
68196;SDS011;55019;49.382;11.358;2023-03-14T12:10:40;0.13;;;0.13;;
68196;SDS011;55019;49.382;11.358;2023-03-14T12:13:11;0.20;;;0.20;;
68196;SDS011;55019;49.382;11.358;2023-03-14T12:15:50;0.40;;;0.40;;
68196;SDS011;55019;49.382;11.358;2023-03-14T12:21:03;0.93;;;0.30;;
68196;SDS011;55019;49.382;11.358;2023-03-14T12:26:18;0.52;;;0.25;;
68196;SDS011;55019;49.382;11.358;2023-03-14T12:36:48;0.75;;;0.20;;
68196;SDS011;55019;49.382;11.358;2023-03-14T12:46:57;1.45;;;0.43;;
68196;SDS011;55019;49.382;11.358;2023-03-14T12:49:30;0.68;;;0.35;;
68196;SDS011;55019;49.382;11.358;2023-03-14T12:52:00;0.30;;;0.22;;
68196;SDS011;55019;49.382;11.358;2023-03-14T12:57:28;0.32;;;0.20;;
68196;SDS011;55019;49.382;11.358;2023-03-14T13:00:17;1.95;;;0.22;;
68196;SDS011;55019;49.382;11.358;2023-03-14T13:02:45;0.20;;;0.20;;
68196;SDS011;55019;49.382;11.358;2023-03-14T13:05:20;0.40;;;0.20;;
68196;SDS011;55019;49.382;11.358;2023-03-14T13:13:21;1.27;;;0.20;;
68196;SDS011;55019;49.382;11.358;2023-03-14T13:15:49;0.30;;;0.10;;
68196;SDS011;55019;49.382;11.358;2023-03-14T13:21:28;0.98;;;0.38;;
68196;SDS011;55019;49.382;11.358;2023-03-14T13:24:02;0.20;;;0.10;;
68196;SDS011;55019;49.382;11.358;2023-03-14T13:26:32;0.13;;;0.10;;
68196;SDS011;55019;49.382;11.358;2023-03-14T13:29:08;0.20;;;0.10;;
68196;SDS011;55019;49.382;11.358;2023-03-14T13:31:35;0.17;;;0.00;;
68196;SDS011;55019;49.382;11.358;2023-03-14T13:34:02;1.20;;;0.08;;
68196;SDS011;55019;49.382;11.358;2023-03-14T13:36:33;0.68;;;0.10;;
68196;SDS011;55019;49.382;11.358;2023-03-14T13:39:01;0.10;;;0.00;;
68196;SDS011;55019;49.382;11.358;2023-03-14T13:41:29;0.13;;;0.10;;
68196;SDS011;55019;49.382;11.358;2023-03-14T13:44:05;0.47;;;0.10;;
68196;SDS011;55019;49.382;11.358;2023-03-14T13:46:34;0.10;;;0.10;;
68196;SDS011;55019;49.382;11.358;2023-03-14T13:49:02;0.25;;;0.25;;
68196;SDS011;55019;49.382;11.358;2023-03-14T13:51:31;0.45;;;0.10;;
68196;SDS011;55019;49.382;11.358;2023-03-14T13:54:01;0.10;;;0.10;;
68196;SDS011;55019;49.382;11.358;2023-03-14T13:56:29;0.50;;;0.10;;
68196;SDS011;55019;49.382;11.358;2023-03-14T13:58:57;0.30;;;0.30;;
68196;SDS011;55019;49.382;11.358;2023-03-14T14:01:24;0.10;;;0.10;;
68196;SDS011;55019;49.382;11.358;2023-03-14T14:03:54;0.28;;;0.10;;
68196;SDS011;55019;49.382;11.358;2023-03-14T14:09:01;0.30;;;0.05;;
68196;SDS011;55019;49.382;11.358;2023-03-14T14:14:25;0.30;;;0.13;;
68196;SDS011;55019;49.382;11.358;2023-03-14T14:16:52;0.50;;;0.10;;
68196;SDS011;55019;49.382;11.358;2023-03-14T14:19:19;0.15;;;0.15;;
68196;SDS011;55019;49.382;11.358;2023-03-14T14:21:48;0.10;;;0.10;;
68196;SDS011;55019;49.382;11.358;2023-03-14T14:24:15;0.13;;;0.13;;
68196;SDS011;55019;49.382;11.358;2023-03-14T14:26:50;0.00;;;0.00;;
68196;SDS011;55019;49.382;11.358;2023-03-14T14:29:25;0.10;;;0.00;;
68196;SDS011;55019;49.382;11.358;2023-03-14T14:34:46;0.30;;;0.20;;
68196;SDS011;55019;49.382;11.358;2023-03-14T14:39:48;0.20;;;0.10;;
68196;SDS011;55019;49.382;11.358;2023-03-14T14:42:18;0.32;;;0.20;;
68196;SDS011;55019;49.382;11.358;2023-03-14T14:44:47;0.20;;;0.10;;
68196;SDS011;55019;49.382;11.358;2023-03-14T14:47:20;0.55;;;0.40;;
68196;SDS011;55019;49.382;11.358;2023-03-14T14:49:48;0.35;;;0.30;;
68196;SDS011;55019;49.382;11.358;2023-03-14T14:52:16;0.30;;;0.20;;
68196;SDS011;55019;49.382;11.358;2023-03-14T14:54:44;0.20;;;0.20;;
68196;SDS011;55019;49.382;11.358;2023-03-14T14:57:19;0.10;;;0.10;;
68196;SDS011;55019;49.382;11.358;2023-03-14T14:59:51;0.30;;;0.20;;
68196;SDS011;55019;49.382;11.358;2023-03-14T15:02:38;0.93;;;0.20;;
68196;SDS011;55019;49.382;11.358;2023-03-14T15:05:27;0.30;;;0.30;;
68196;SDS011;55019;49.382;11.358;2023-03-14T15:07:56;0.73;;;0.43;;
68196;SDS011;55019;49.382;11.358;2023-03-14T15:10:23;0.30;;;0.30;;
68196;SDS011;55019;49.382;11.358;2023-03-14T15:12:50;0.40;;;0.40;;
68196;SDS011;55019;49.382;11.358;2023-03-14T15:15:16;0.40;;;0.40;;
68196;SDS011;55019;49.382;11.358;2023-03-14T15:17:43;0.57;;;0.43;;
68196;SDS011;55019;49.382;11.358;2023-03-14T15:20:13;0.88;;;0.45;;
68196;SDS011;55019;49.382;11.358;2023-03-14T15:22:41;0.50;;;0.50;;
68196;SDS011;55019;49.382;11.358;2023-03-14T15:25:07;0.80;;;0.40;;
68196;SDS011;55019;49.382;11.358;2023-03-14T15:27:33;0.95;;;0.38;;
68196;SDS011;55019;49.382;11.358;2023-03-14T15:29:59;0.60;;;0.60;;
68196;SDS011;55019;49.382;11.358;2023-03-14T15:32:26;0.75;;;0.40;;
68196;SDS011;55019;49.382;11.358;2023-03-14T15:34:55;0.93;;;0.50;;
68196;SDS011;55019;49.382;11.358;2023-03-14T15:37:21;0.82;;;0.70;;
68196;SDS011;55019;49.382;11.358;2023-03-14T15:39:47;1.65;;;0.40;;
68196;SDS011;55019;49.382;11.358;2023-03-14T15:42:13;0.55;;;0.55;;
68196;SDS011;55019;49.382;11.358;2023-03-14T15:44:39;0.63;;;0.50;;
68196;SDS011;55019;49.382;11.358;2023-03-14T15:47:05;0.50;;;0.50;;
68196;SDS011;55019;49.382;11.358;2023-03-14T15:49:31;1.17;;;0.70;;
68196;SDS011;55019;49.382;11.358;2023-03-14T15:51:57;1.83;;;0.80;;
68196;SDS011;55019;49.382;11.358;2023-03-14T15:54:24;1.00;;;0.50;;
68196;SDS011;55019;49.382;11.358;2023-03-14T15:56:55;1.70;;;0.70;;
68196;SDS011;55019;49.382;11.358;2023-03-14T15:59:21;0.80;;;0.75;;
68196;SDS011;55019;49.382;11.358;2023-03-14T16:01:48;0.63;;;0.60;;
68196;SDS011;55019;49.382;11.358;2023-03-14T16:04:14;2.25;;;0.63;;
68196;SDS011;55019;49.382;11.358;2023-03-14T16:06:39;1.38;;;0.80;;
68196;SDS011;55019;49.382;11.358;2023-03-14T16:09:06;1.02;;;0.80;;
68196;SDS011;55019;49.382;11.358;2023-03-14T16:11:32;1.35;;;0.80;;
68196;SDS011;55019;49.382;11.358;2023-03-14T16:13:58;1.60;;;0.88;;
68196;SDS011;55019;49.382;11.358;2023-03-14T16:16:23;1.75;;;0.80;;
68196;SDS011;55019;49.382;11.358;2023-03-14T16:18:49;2.38;;;0.70;;
68196;SDS011;55019;49.382;11.358;2023-03-14T16:21:16;1.20;;;0.60;;
68196;SDS011;55019;49.382;11.358;2023-03-14T16:23:43;0.90;;;0.52;;
68196;SDS011;55019;49.382;11.358;2023-03-14T16:26:10;3.60;;;0.50;;
68196;SDS011;55019;49.382;11.358;2023-03-14T16:28:38;0.60;;;0.57;;
68196;SDS011;55019;49.382;11.358;2023-03-14T16:31:05;1.30;;;0.60;;
68196;SDS011;55019;49.382;11.358;2023-03-14T16:33:32;0.80;;;0.55;;